sensor_id;sensor_type;location;lat;lon;timestamp;pressure;altitude;pressure_sealevel;temperature;humidity
78144;BME280;67394;52.522;13.622;2023-08-21T00:02:14;101572.59;;;19.88;100.00
78144;BME280;67394;52.522;13.622;2023-08-21T00:04:42;101568.38;;;19.82;100.00
78144;BME280;67394;52.522;13.622;2023-08-21T00:07:08;101565.91;;;19.78;100.00
78144;BME280;67394;52.522;13.622;2023-08-21T00:09:35;101567.72;;;19.74;100.00
78144;BME280;67394;52.522;13.622;2023-08-21T00:12:05;101560.88;;;19.70;100.00
78144;BME280;67394;52.522;13.622;2023-08-21T00:14:32;101560.97;;;19.65;100.00
78144;BME280;67394;52.522;13.622;2023-08-21T00:16:59;101558.44;;;19.62;100.00
78144;BME280;67394;52.522;13.622;2023-08-21T00:19:25;101549.06;;;19.57;100.00
78144;BME280;67394;52.522;13.622;2023-08-21T00:21:52;101555.09;;;19.57;100.00
78144;BME280;67394;52.522;13.622;2023-08-21T00:24:20;101556.97;;;19.51;100.00
78144;BME280;67394;52.522;13.622;2023-08-21T00:26:47;101560.47;;;19.50;100.00
78144;BME280;67394;52.522;13.622;2023-08-21T00:29:13;101567.28;;;19.55;100.00
78144;BME280;67394;52.522;13.622;2023-08-21T00:31:40;101572.53;;;19.54;100.00
78144;BME280;67394;52.522;13.622;2023-08-21T00:34:06;101559.69;;;19.45;100.00
78144;BME280;67394;52.522;13.622;2023-08-21T00:36:34;101565.81;;;19.42;100.00
78144;BME280;67394;52.522;13.622;2023-08-21T00:39:00;101565.03;;;19.38;100.00
78144;BME280;67394;52.522;13.622;2023-08-21T00:41:27;101568.63;;;19.33;100.00
78144;BME280;67394;52.522;13.622;2023-08-21T00:43:54;101564.28;;;19.33;100.00
78144;BME280;67394;52.522;13.622;2023-08-21T00:46:20;101565.19;;;19.31;100.00
78144;BME280;67394;52.522;13.622;2023-08-21T00:48:47;101562.69;;;19.28;100.00
78144;BME280;67394;52.522;13.622;2023-08-21T00:51:15;101565.38;;;19.23;100.00
78144;BME280;67394;52.522;13.622;2023-08-21T00:53:43;101564.44;;;19.27;100.00
78144;BME280;67394;52.522;13.622;2023-08-21T00:56:10;101565.44;;;19.19;100.00
78144;BME280;67394;52.522;13.622;2023-08-21T00:58:37;101561.25;;;19.13;100.00
78144;BME280;67394;52.522;13.622;2023-08-21T01:01:05;101562.06;;;19.17;100.00
78144;BME280;67394;52.522;13.622;2023-08-21T01:03:33;101563.75;;;19.18;100.00
78144;BME280;67394;52.522;13.622;2023-08-21T01:05:59;101565.66;;;19.10;100.00
78144;BME280;67394;52.522;13.622;2023-08-21T01:14:00;101564.81;;;19.08;100.00
78144;BME280;67394;52.522;13.622;2023-08-21T01:16:30;101570.94;;;19.07;100.00
78144;BME280;67394;52.522;13.622;2023-08-21T01:19:01;101574.44;;;19.04;100.00
78144;BME280;67394;52.522;13.622;2023-08-21T01:21:28;101572.75;;;19.01;100.00
78144;BME280;67394;52.522;13.622;2023-08-21T01:23:56;101565.78;;;19.04;100.00
78144;BME280;67394;52.522;13.622;2023-08-21T01:26:23;101566.66;;;19.04;100.00
78144;BME280;67394;52.522;13.622;2023-08-21T01:28:50;101565.78;;;19.04;100.00
78144;BME280;67394;52.522;13.622;2023-08-21T01:31:28;101570.84;;;19.10;100.00
78144;BME280;67394;52.522;13.622;2023-08-21T01:34:01;101569.94;;;19.12;100.00
78144;BME280;67394;52.522;13.622;2023-08-21T01:36:32;101566.41;;;19.16;100.00
78144;BME280;67394;52.522;13.622;2023-08-21T01:38:59;101570.63;;;19.20;100.00
78144;BME280;67394;52.522;13.622;2023-08-21T01:41:25;101560.13;;;19.25;100.00
78144;BME280;67394;52.522;13.622;2023-08-21T01:43:52;101556.56;;;19.29;100.00
78144;BME280;67394;52.522;13.622;2023-08-21T01:46:19;101553.97;;;19.29;100.00
78144;BME280;67394;52.522;13.622;2023-08-21T01:48:46;101547.84;;;19.31;100.00
78144;BME280;67394;52.522;13.622;2023-08-21T01:51:12;101549.56;;;19.32;100.00
78144;BME280;67394;52.522;13.622;2023-08-21T01:53:39;101539.13;;;19.34;100.00
78144;BME280;67394;52.522;13.622;2023-08-21T01:56:05;101546.91;;;19.35;100.00
78144;BME280;67394;52.522;13.622;2023-08-21T01:58:34;101539.06;;;19.37;100.00
78144;BME280;67394;52.522;13.622;2023-08-21T02:01:00;101546.00;;;19.38;100.00
78144;BME280;67394;52.522;13.622;2023-08-21T02:03:27;101527.69;;;19.41;100.00
78144;BME280;67394;52.522;13.622;2023-08-21T02:05:56;101533.78;;;19.40;100.00
78144;BME280;67394;52.522;13.622;2023-08-21T02:08:27;101532.88;;;19.41;100.00
78144;BME280;67394;52.522;13.622;2023-08-21T02:10:56;101533.78;;;19.40;100.00
78144;BME280;67394;52.522;13.622;2023-08-21T02:13:23;101541.53;;;19.43;100.00
78144;BME280;67394;52.522;13.622;2023-08-21T02:15:50;101527.63;;;19.44;100.00
78144;BME280;67394;52.522;13.622;2023-08-21T02:18:17;101533.69;;;19.45;100.00
78144;BME280;67394;52.522;13.622;2023-08-21T02:20:44;101531.03;;;19.48;100.00
78144;BME280;67394;52.522;13.622;2023-08-21T02:23:10;101526.63;;;19.51;100.00
78144;BME280;67394;52.522;13.622;2023-08-21T02:25:37;101529.34;;;19.45;100.00
78144;BME280;67394;52.522;13.622;2023-08-21T02:28:03;101534.50;;;19.48;100.00
78144;BME280;67394;52.522;13.622;2023-08-21T02:30:30;101526.72;;;19.48;100.00
78144;BME280;67394;52.522;13.622;2023-08-21T02:32:56;101524.06;;;19.50;100.00
78144;BME280;67394;52.522;13.622;2023-08-21T02:35:23;101529.22;;;19.51;100.00
78144;BME280;67394;52.522;13.622;2023-08-21T02:37:50;101533.50;;;19.54;100.00
78144;BME280;67394;52.522;13.622;2023-08-21T02:40:16;101534.28;;;19.57;100.00
78144;BME280;67394;52.522;13.622;2023-08-21T02:42:43;101529.97;;;19.56;100.00
78144;BME280;67394;52.522;13.622;2023-08-21T02:45:09;101532.47;;;19.61;100.00
78144;BME280;67394;52.522;13.622;2023-08-21T02:47:40;101528.13;;;19.61;100.00
78144;BME280;67394;52.522;13.622;2023-08-21T02:50:08;101534.16;;;19.62;100.00
78144;BME280;67394;52.522;13.622;2023-08-21T02:52:36;101536.81;;;19.60;100.00
78144;BME280;67394;52.522;13.622;2023-08-21T02:55:04;101535.88;;;19.63;100.00
78144;BME280;67394;52.522;13.622;2023-08-21T02:57:31;101528.13;;;19.61;100.00
78144;BME280;67394;52.522;13.622;2023-08-21T02:59:58;101541.13;;;19.61;100.00
78144;BME280;67394;52.522;13.622;2023-08-21T03:02:25;101532.53;;;19.59;100.00
78144;BME280;67394;52.522;13.622;2023-08-21T03:04:52;101535.13;;;19.59;100.00
78144;BME280;67394;52.522;13.622;2023-08-21T03:07:18;101538.53;;;19.61;100.00
78144;BME280;67394;52.522;13.622;2023-08-21T03:09:46;101533.31;;;19.61;100.00
78144;BME280;67394;52.522;13.622;2023-08-21T03:12:12;101534.16;;;19.62;100.00
78144;BME280;67394;52.522;13.622;2023-08-21T03:14:41;101531.41;;;19.69;100.00
78144;BME280;67394;52.522;13.622;2023-08-21T03:17:07;101533.19;;;19.67;100.00
78144;BME280;67394;52.522;13.622;2023-08-21T03:19:34;101527.00;;;19.71;100.00
78144;BME280;67394;52.522;13.622;2023-08-21T03:22:01;101529.69;;;19.68;100.00
78144;BME280;67394;52.522;13.622;2023-08-21T03:24:27;101525.38;;;19.67;100.00
78144;BME280;67394;52.522;13.622;2023-08-21T03:26:53;101522.84;;;19.64;100.00
78144;BME280;67394;52.522;13.622;2023-08-21T03:29:20;101526.34;;;19.63;100.00
78144;BME280;67394;52.522;13.622;2023-08-21T03:31:50;101523.78;;;19.62;100.00
78144;BME280;67394;52.522;13.622;2023-08-21T03:34:17;101523.78;;;19.62;100.00
78144;BME280;67394;52.522;13.622;2023-08-21T03:36:46;101522.06;;;19.61;100.00
78144;BME280;67394;52.522;13.622;2023-08-21T03:39:12;101528.13;;;19.61;100.00
78144;BME280;67394;52.522;13.622;2023-08-21T03:41:39;101519.41;;;19.62;100.00
78144;BME280;67394;52.522;13.622;2023-08-21T03:44:06;101521.19;;;19.60;100.00
78144;BME280;67394;52.522;13.622;2023-08-21T03:46:32;101526.50;;;19.57;100.00
78144;BME280;67394;52.522;13.622;2023-08-21T03:49:00;101516.91;;;19.59;100.00
78144;BME280;67394;52.522;13.622;2023-08-21T03:51:27;101528.13;;;19.61;100.00
78144;BME280;67394;52.522;13.622;2023-08-21T03:53:53;101521.09;;;19.65;100.00
78144;BME280;67394;52.522;13.622;2023-08-21T03:56:20;101517.53;;;19.69;100.00
78144;BME280;67394;52.522;13.622;2023-08-21T03:58:46;101524.56;;;19.65;100.00
78144;BME280;67394;52.522;13.622;2023-08-21T04:01:13;101525.47;;;19.63;100.00
78144;BME280;67394;52.522;13.622;2023-08-21T04:03:39;101529.81;;;19.62;100.00
78144;BME280;67394;52.522;13.622;2023-08-21T04:06:07;101531.53;;;19.63;100.00
78144;BME280;67394;52.522;13.622;2023-08-21T04:08:33;101536.75;;;19.63;100.00
78144;BME280;67394;52.522;13.622;2023-08-21T04:11:01;101543.66;;;19.64;100.00
78144;BME280;67394;52.522;13.622;2023-08-21T04:13:28;101546.22;;;19.66;100.00
78144;BME280;67394;52.522;13.622;2023-08-21T04:15:54;101543.63;;;19.66;100.00
78144;BME280;67394;52.522;13.622;2023-08-21T04:18:21;101550.53;;;19.67;100.00
78144;BME280;67394;52.522;13.622;2023-08-21T04:21:06;101551.38;;;19.69;100.00
78144;BME280;67394;52.522;13.622;2023-08-21T04:23:32;101545.22;;;19.71;100.00
78144;BME280;67394;52.522;13.622;2023-08-21T04:26:03;101553.00;;;19.73;100.00
78144;BME280;67394;52.522;13.622;2023-08-21T04:28:30;101552.13;;;19.72;100.00
78144;BME280;67394;52.522;13.622;2023-08-21T04:30:57;101553.00;;;19.73;100.00
78144;BME280;67394;52.522;13.622;2023-08-21T04:33:24;101548.63;;;19.73;100.00
78144;BME280;67394;52.522;13.622;2023-08-21T04:35:51;101559.88;;;19.76;100.00
78144;BME280;67394;52.522;13.622;2023-08-21T04:38:17;101565.03;;;19.77;100.00
78144;BME280;67394;52.522;13.622;2023-08-21T04:40:44;101568.47;;;19.79;100.00
78144;BME280;67394;52.522;13.622;2023-08-21T04:43:10;101569.22;;;19.83;100.00
78144;BME280;67394;52.522;13.622;2023-08-21T04:45:37;101563.13;;;19.84;100.00
78144;BME280;67394;52.522;13.622;2023-08-21T04:48:04;101562.22;;;19.86;100.00
78144;BME280;67394;52.522;13.622;2023-08-21T04:50:32;101568.25;;;19.88;100.00
78144;BME280;67394;52.522;13.622;2023-08-21T04:52:59;101569.94;;;19.91;100.00
78144;BME280;67394;52.522;13.622;2023-08-21T04:55:25;101565.50;;;19.93;100.00
78144;BME280;67394;52.522;13.622;2023-08-21T04:57:52;101560.25;;;19.96;100.00
78144;BME280;67394;52.522;13.622;2023-08-21T05:00:18;101566.28;;;19.98;100.00
78144;BME280;67394;52.522;13.622;2023-08-21T05:02:45;101565.38;;;19.99;100.00
78144;BME280;67394;52.522;13.622;2023-08-21T05:05:11;101556.72;;;19.98;100.00
78144;BME280;67394;52.522;13.622;2023-08-21T05:07:38;101559.19;;;20.03;100.00
78144;BME280;67394;52.522;13.622;2023-08-21T05:10:05;101561.72;;;20.06;100.00
78144;BME280;67394;52.522;13.622;2023-08-21T05:12:32;101563.34;;;20.12;100.00
78144;BME280;67394;52.522;13.622;2023-08-21T05:14:59;101565.81;;;20.16;100.00
78144;BME280;67394;52.522;13.622;2023-08-21T05:17:25;101568.19;;;20.24;100.00
78144;BME280;67394;52.522;13.622;2023-08-21T05:19:52;101574.13;;;20.30;100.00
78144;BME280;67394;52.522;13.622;2023-08-21T05:22:18;101573.09;;;20.37;100.00
78144;BME280;67394;52.522;13.622;2023-08-21T05:24:47;101587.50;;;20.51;100.00
78144;BME280;67394;52.522;13.622;2023-08-21T05:27:14;101589.00;;;20.59;100.00
78144;BME280;67394;52.522;13.622;2023-08-21T05:29:40;101593.38;;;20.59;100.00
78144;BME280;67394;52.522;13.622;2023-08-21T05:32:07;101584.56;;;20.64;100.00
78144;BME280;67394;52.522;13.622;2023-08-21T05:34:34;101591.38;;;20.68;100.00
78144;BME280;67394;52.522;13.622;2023-08-21T05:37:00;101585.97;;;20.76;100.00
78144;BME280;67394;52.522;13.622;2023-08-21T05:39:27;101585.81;;;20.80;100.00
78144;BME280;67394;52.522;13.622;2023-08-21T05:41:54;101597.03;;;20.84;100.00
78144;BME280;67394;52.522;13.622;2023-08-21T05:44:20;101589.88;;;20.91;100.00
78144;BME280;67394;52.522;13.622;2023-08-21T05:46:47;101590.47;;;21.00;100.00
78144;BME280;67394;52.522;13.622;2023-08-21T05:49:14;101597.28;;;21.06;100.00
78144;BME280;67394;52.522;13.622;2023-08-21T05:51:40;101596.16;;;21.14;100.00
78144;BME280;67394;52.522;13.622;2023-08-21T05:54:07;101598.59;;;21.21;100.00
78144;BME280;67394;52.522;13.622;2023-08-21T05:56:34;101594.09;;;21.27;100.00
78144;BME280;67394;52.522;13.622;2023-08-21T05:59:00;101600.03;;;21.31;100.00
78144;BME280;67394;52.522;13.622;2023-08-21T06:01:26;101598.25;;;21.33;100.00
78144;BME280;67394;52.522;13.622;2023-08-21T06:03:53;101602.31;;;21.41;100.00
78144;BME280;67394;52.522;13.622;2023-08-21T06:06:20;101603.00;;;21.48;100.00
78144;BME280;67394;52.522;13.622;2023-08-21T06:08:48;101595.84;;;21.54;98.91
78144;BME280;67394;52.522;13.622;2023-08-21T06:11:16;101598.31;;;21.59;98.95
78144;BME280;67394;52.522;13.622;2023-08-21T06:13:43;101595.50;;;21.65;98.54
78144;BME280;67394;52.522;13.622;2023-08-21T06:16:10;101598.00;;;21.70;95.79
78144;BME280;67394;52.522;13.622;2023-08-21T06:18:36;101602.88;;;21.80;95.63
78144;BME280;67394;52.522;13.622;2023-08-21T06:21:03;101599.03;;;21.92;96.00
78144;BME280;67394;52.522;13.622;2023-08-21T06:23:31;101598.59;;;22.06;94.19
78144;BME280;67394;52.522;13.622;2023-08-21T06:25:57;101592.31;;;22.11;95.07
78144;BME280;67394;52.522;13.622;2023-08-21T06:28:24;101600.16;;;22.11;93.30
78144;BME280;67394;52.522;13.622;2023-08-21T06:30:57;101591.19;;;22.18;94.12
78144;BME280;67394;52.522;13.622;2023-08-21T06:33:24;101600.38;;;22.30;92.20
78144;BME280;67394;52.522;13.622;2023-08-21T06:35:50;101595.66;;;22.41;91.64
78144;BME280;67394;52.522;13.622;2023-08-21T06:38:18;101594.44;;;22.51;90.18
78144;BME280;67394;52.522;13.622;2023-08-21T06:40:45;101600.47;;;22.53;90.29
78144;BME280;67394;52.522;13.622;2023-08-21T06:43:11;101605.69;;;22.53;88.12
78144;BME280;67394;52.522;13.622;2023-08-21T06:45:39;101606.69;;;22.49;90.18
78144;BME280;67394;52.522;13.622;2023-08-21T06:48:06;101605.78;;;22.50;89.42
78144;BME280;67394;52.522;13.622;2023-08-21T06:50:33;101604.66;;;22.57;89.35
78144;BME280;67394;52.522;13.622;2023-08-21T06:53:00;101608.66;;;22.68;89.25
78144;BME280;67394;52.522;13.622;2023-08-21T06:55:26;101607.25;;;22.84;88.12
78144;BME280;67394;52.522;13.622;2023-08-21T06:57:56;101614.59;;;22.97;87.52
78144;BME280;67394;52.522;13.622;2023-08-21T07:00:25;101614.59;;;22.97;85.96
78144;BME280;67394;52.522;13.622;2023-08-21T07:02:53;101613.78;;;22.95;86.59
78144;BME280;67394;52.522;13.622;2023-08-21T07:05:19;101613.78;;;22.95;87.01
78144;BME280;67394;52.522;13.622;2023-08-21T07:07:47;101617.31;;;22.94;85.27
78144;BME280;67394;52.522;13.622;2023-08-21T07:10:13;101614.59;;;22.97;85.38
78144;BME280;67394;52.522;13.622;2023-08-21T07:12:40;101621.25;;;23.06;88.02
78144;BME280;67394;52.522;13.622;2023-08-21T07:15:07;101607.94;;;23.12;84.81
78144;BME280;67394;52.522;13.622;2023-08-21T07:17:34;101612.03;;;23.19;84.50
78144;BME280;67394;52.522;13.622;2023-08-21T07:20:00;101616.22;;;23.23;83.12
78144;BME280;67394;52.522;13.622;2023-08-21T07:22:27;101609.94;;;23.29;83.36
78144;BME280;67394;52.522;13.622;2023-08-21T07:24:54;101609.88;;;23.30;82.64
78144;BME280;67394;52.522;13.622;2023-08-21T07:27:20;101610.47;;;23.37;82.60
78144;BME280;67394;52.522;13.622;2023-08-21T07:29:47;101614.06;;;23.58;82.58
78144;BME280;67394;52.522;13.622;2023-08-21T07:32:13;101610.00;;;23.73;80.67
78144;BME280;67394;52.522;13.622;2023-08-21T07:34:40;101605.63;;;23.73;79.26
78144;BME280;67394;52.522;13.622;2023-08-21T07:37:08;101616.69;;;23.80;80.47
78144;BME280;67394;52.522;13.622;2023-08-21T07:39:34;101617.97;;;23.91;76.91
78144;BME280;67394;52.522;13.622;2023-08-21T07:42:01;101618.63;;;23.96;78.11
78144;BME280;67394;52.522;13.622;2023-08-21T07:44:28;101626.81;;;23.89;77.84
78144;BME280;67394;52.522;13.622;2023-08-21T07:46:54;101630.34;;;23.88;77.85
78144;BME280;67394;52.522;13.622;2023-08-21T07:49:21;101626.81;;;23.89;78.40
78144;BME280;67394;52.522;13.622;2023-08-21T07:51:48;101628.25;;;23.96;77.51
78144;BME280;67394;52.522;13.622;2023-08-21T07:54:14;101631.91;;;24.14;76.01
78144;BME280;67394;52.522;13.622;2023-08-21T07:56:41;101624.53;;;24.23;74.81
78144;BME280;67394;52.522;13.622;2023-08-21T07:59:07;101635.09;;;24.22;75.40
78144;BME280;67394;52.522;13.622;2023-08-21T08:01:34;101625.13;;;24.08;71.51
78144;BME280;67394;52.522;13.622;2023-08-21T08:04:00;101630.16;;;24.14;72.14
78144;BME280;67394;52.522;13.622;2023-08-21T08:06:27;101631.75;;;24.17;72.34
78144;BME280;67394;52.522;13.622;2023-08-21T08:08:53;101632.34;;;24.25;72.71
78144;BME280;67394;52.522;13.622;2023-08-21T08:11:20;101631.22;;;24.30;72.08
78144;BME280;67394;52.522;13.622;2023-08-21T08:13:47;101632.75;;;24.36;71.07
78144;BME280;67394;52.522;13.622;2023-08-21T08:16:14;101639.81;;;24.34;68.99
78144;BME280;67394;52.522;13.622;2023-08-21T08:18:41;101641.78;;;24.49;68.31
78144;BME280;67394;52.522;13.622;2023-08-21T08:21:10;101627.88;;;24.27;65.68
78144;BME280;67394;52.522;13.622;2023-08-21T08:23:36;101639.56;;;24.40;65.00
78144;BME280;67394;52.522;13.622;2023-08-21T08:26:03;101642.25;;;24.38;63.51
78144;BME280;67394;52.522;13.622;2023-08-21T08:28:29;101640.91;;;24.28;64.59
78144;BME280;67394;52.522;13.622;2023-08-21T08:30:56;101629.34;;;24.34;66.89
78144;BME280;67394;52.522;13.622;2023-08-21T08:33:23;101636.75;;;24.44;65.53
78144;BME280;67394;52.522;13.622;2023-08-21T08:35:49;101634.59;;;24.54;65.70
78144;BME280;67394;52.522;13.622;2023-08-21T08:38:16;101633.06;;;24.49;63.71
78144;BME280;67394;52.522;13.622;2023-08-21T08:40:46;101637.16;;;24.56;65.38
78144;BME280;67394;52.522;13.622;2023-08-21T08:43:13;101640.41;;;24.61;64.32
78144;BME280;67394;52.522;13.622;2023-08-21T08:45:41;101642.78;;;24.67;64.94
78144;BME280;67394;52.522;13.622;2023-08-21T08:48:09;101639.44;;;24.63;61.84
78144;BME280;67394;52.522;13.622;2023-08-21T08:50:37;101639.09;;;24.71;61.90
78144;BME280;67394;52.522;13.622;2023-08-21T08:53:06;101641.41;;;24.78;60.14
78144;BME280;67394;52.522;13.622;2023-08-21T08:55:42;101649.66;;;24.69;60.75
78144;BME280;67394;52.522;13.622;2023-08-21T08:58:09;101653.59;;;24.59;61.20
78144;BME280;67394;52.522;13.622;2023-08-21T09:00:36;101654.50;;;24.58;63.00
78144;BME280;67394;52.522;13.622;2023-08-21T09:03:04;101647.50;;;24.59;65.00
78144;BME280;67394;52.522;13.622;2023-08-21T09:05:33;101642.56;;;24.71;62.93
78144;BME280;67394;52.522;13.622;2023-08-21T09:08:17;101643.25;;;24.76;61.95
78144;BME280;67394;52.522;13.622;2023-08-21T09:10:44;101649.53;;;24.93;60.95
78144;BME280;67394;52.522;13.622;2023-08-21T09:13:16;101647.88;;;25.10;61.86
78144;BME280;67394;52.522;13.622;2023-08-21T09:15:45;101640.06;;;25.09;61.47
78144;BME280;67394;52.522;13.622;2023-08-21T09:18:12;101641.06;;;25.06;60.22
78144;BME280;67394;52.522;13.622;2023-08-21T09:20:39;101643.31;;;25.14;60.57
78144;BME280;67394;52.522;13.622;2023-08-21T09:23:06;101630.63;;;25.05;56.49
78144;BME280;67394;52.522;13.622;2023-08-21T09:25:38;101635.50;;;25.12;54.58
78144;BME280;67394;52.522;13.622;2023-08-21T09:28:06;101636.03;;;25.39;56.15
78144;BME280;67394;52.522;13.622;2023-08-21T09:33:18;101635.41;;;25.72;55.17
78144;BME280;67394;52.522;13.622;2023-08-21T09:35:45;101630.13;;;26.08;56.59
78144;BME280;67394;52.522;13.622;2023-08-21T09:38:12;101622.63;;;26.17;52.83
78144;BME280;67394;52.522;13.622;2023-08-21T09:40:41;101622.03;;;26.12;43.93
78144;BME280;67394;52.522;13.622;2023-08-21T09:43:09;101631.66;;;26.31;43.74
78144;BME280;67394;52.522;13.622;2023-08-21T09:45:36;101629.09;;;26.46;40.87
78144;BME280;67394;52.522;13.622;2023-08-21T09:48:07;101626.78;;;26.40;42.21
78144;BME280;67394;52.522;13.622;2023-08-21T09:50:35;101618.09;;;26.55;42.44
78144;BME280;67394;52.522;13.622;2023-08-21T09:53:01;101622.81;;;26.49;44.03
78144;BME280;67394;52.522;13.622;2023-08-21T09:55:29;101612.00;;;26.55;42.29
78144;BME280;67394;52.522;13.622;2023-08-21T09:58:00;101618.78;;;26.76;42.38
78144;BME280;67394;52.522;13.622;2023-08-21T10:00:32;101612.31;;;26.99;42.40
78144;BME280;67394;52.522;13.622;2023-08-21T10:03:01;101617.09;;;27.24;41.53
78144;BME280;67394;52.522;13.622;2023-08-21T10:05:31;101615.94;;;27.29;40.88
78144;BME280;67394;52.522;13.622;2023-08-21T10:08:04;101615.47;;;27.06;40.55
78144;BME280;67394;52.522;13.622;2023-08-21T10:10:33;101611.69;;;27.43;41.63
78144;BME280;67394;52.522;13.622;2023-08-21T10:13:01;101613.22;;;27.62;40.24
78144;BME280;67394;52.522;13.622;2023-08-21T10:15:33;101611.88;;;28.01;42.91
78144;BME280;67394;52.522;13.622;2023-08-21T10:20:45;101607.06;;;27.93;39.61
78144;BME280;67394;52.522;13.622;2023-08-21T10:23:24;101616.06;;;28.05;40.90
78144;BME280;67394;52.522;13.622;2023-08-21T10:25:55;101612.03;;;27.84;40.39
78144;BME280;67394;52.522;13.622;2023-08-21T10:28:54;101626.22;;;27.81;41.66
78144;BME280;67394;52.522;13.622;2023-08-21T10:33:54;101617.81;;;27.75;42.17
78144;BME280;67394;52.522;13.622;2023-08-21T10:39:32;101615.75;;;27.80;39.31
78144;BME280;67394;52.522;13.622;2023-08-21T10:49:41;101616.38;;;28.73;37.97
78144;BME280;67394;52.522;13.622;2023-08-21T10:52:10;101621.31;;;28.05;38.38
78144;BME280;67394;52.522;13.622;2023-08-21T10:54:48;101608.91;;;28.07;40.17
78144;BME280;67394;52.522;13.622;2023-08-21T10:57:15;101626.41;;;28.24;40.64
78144;BME280;67394;52.522;13.622;2023-08-21T11:02:20;101634.78;;;28.30;40.00
78144;BME280;67394;52.522;13.622;2023-08-21T11:04:48;101627.09;;;28.41;40.17
78144;BME280;67394;52.522;13.622;2023-08-21T11:07:15;101626.50;;;28.07;40.80
78144;BME280;67394;52.522;13.622;2023-08-21T11:09:42;101623.44;;;28.14;40.67
78144;BME280;67394;52.522;13.622;2023-08-21T11:12:13;101628.94;;;28.10;40.87
78144;BME280;67394;52.522;13.622;2023-08-21T11:14:41;101632.78;;;27.74;40.02
78144;BME280;67394;52.522;13.622;2023-08-21T11:17:08;101624.94;;;27.73;40.42
78144;BME280;67394;52.522;13.622;2023-08-21T11:19:36;101629.69;;;27.82;42.74
78144;BME280;67394;52.522;13.622;2023-08-21T11:22:03;101631.16;;;27.72;40.13
78144;BME280;67394;52.522;13.622;2023-08-21T11:24:39;101632.63;;;27.61;41.02
78144;BME280;67394;52.522;13.622;2023-08-21T11:27:08;101633.75;;;27.87;43.18
78144;BME280;67394;52.522;13.622;2023-08-21T11:29:38;101633.44;;;27.78;41.16
78144;BME280;67394;52.522;13.622;2023-08-21T11:32:23;101629.53;;;27.53;42.01
78144;BME280;67394;52.522;13.622;2023-08-21T11:34:52;101628.00;;;27.49;41.76
78144;BME280;67394;52.522;13.622;2023-08-21T11:37:24;101629.22;;;27.75;42.14
78144;BME280;67394;52.522;13.622;2023-08-21T11:39:55;101618.84;;;28.02;42.31
78144;BME280;67394;52.522;13.622;2023-08-21T11:42:29;101633.34;;;27.95;39.64
78144;BME280;67394;52.522;13.622;2023-08-21T11:44:57;101628.16;;;27.78;43.31
78144;BME280;67394;52.522;13.622;2023-08-21T11:47:31;101627.66;;;27.40;42.08
78144;BME280;67394;52.522;13.622;2023-08-21T11:50:05;101623.22;;;27.24;44.24
78144;BME280;67394;52.522;13.622;2023-08-21T11:52:32;101627.38;;;27.28;44.74
78144;BME280;67394;52.522;13.622;2023-08-21T11:54:59;101623.97;;;27.89;42.40
78144;BME280;67394;52.522;13.622;2023-08-21T11:57:26;101611.41;;;27.94;40.53
78144;BME280;67394;52.522;13.622;2023-08-21T11:59:53;101613.59;;;28.18;41.13
78144;BME280;67394;52.522;13.622;2023-08-21T12:02:24;101614.84;;;28.40;40.53
78144;BME280;67394;52.522;13.622;2023-08-21T12:05:13;101610.44;;;28.55;41.30
78144;BME280;67394;52.522;13.622;2023-08-21T12:07:39;101614.81;;;28.70;41.79
78144;BME280;67394;52.522;13.622;2023-08-21T12:10:07;101618.00;;;28.75;41.67
78144;BME280;67394;52.522;13.622;2023-08-21T12:12:34;101607.72;;;28.57;41.19
78144;BME280;67394;52.522;13.622;2023-08-21T12:15:00;101617.97;;;28.47;41.66
78144;BME280;67394;52.522;13.622;2023-08-21T12:17:27;101613.38;;;28.65;42.79
78144;BME280;67394;52.522;13.622;2023-08-21T12:19:53;101617.63;;;28.67;39.36
78144;BME280;67394;52.522;13.622;2023-08-21T12:22:24;101616.09;;;28.49;40.17
78144;BME280;67394;52.522;13.622;2023-08-21T12:24:51;101612.06;;;28.58;41.03
78144;BME280;67394;52.522;13.622;2023-08-21T12:27:17;101620.75;;;28.30;41.36
78144;BME280;67394;52.522;13.622;2023-08-21T12:29:44;101621.81;;;28.27;42.90
78144;BME280;67394;52.522;13.622;2023-08-21T12:32:14;101618.31;;;28.11;42.79
78144;BME280;67394;52.522;13.622;2023-08-21T12:34:40;101611.03;;;28.00;42.70
78144;BME280;67394;52.522;13.622;2023-08-21T12:37:07;101604.81;;;27.72;44.03
78144;BME280;67394;52.522;13.622;2023-08-21T12:39:33;101599.50;;;27.87;43.04
78144;BME280;67394;52.522;13.622;2023-08-21T12:42:00;101615.22;;;27.89;43.25
78144;BME280;67394;52.522;13.622;2023-08-21T12:44:26;101608.44;;;27.85;42.68
78144;BME280;67394;52.522;13.622;2023-08-21T12:46:54;101619.00;;;27.85;42.25
78144;BME280;67394;52.522;13.622;2023-08-21T12:49:21;101609.66;;;28.09;43.63
78144;BME280;67394;52.522;13.622;2023-08-21T12:51:47;101598.91;;;28.28;40.45
78144;BME280;67394;52.522;13.622;2023-08-21T12:54:14;101608.63;;;28.41;41.37
78144;BME280;67394;52.522;13.622;2023-08-21T12:56:40;101611.03;;;28.74;41.69
78144;BME280;67394;52.522;13.622;2023-08-21T12:59:07;101604.13;;;28.72;40.22
78144;BME280;67394;52.522;13.622;2023-08-21T13:01:33;101599.06;;;28.83;40.83
78144;BME280;67394;52.522;13.622;2023-08-21T13:04:01;101604.75;;;28.91;40.74
78144;BME280;67394;52.522;13.622;2023-08-21T13:06:27;101602.66;;;29.10;37.89